Time;durP1;ratioP1;P1;durP2;ratioP2;P2;SDS_P1;SDS_P2;PMS_P1;PMS_P2;Temp;Humidity;BMP_temperature;BMP_pressure;BME280_temperature;BME280_humidity;BME280_pressure;Samples;Min_cycle;Max_cycle;Signal;HPM_P1;HPM_P2
2022/12/24 00:00:00;;;;;;;13.63;1.00;;;;;;;11.81;95.42;99601.25;5019745;28;21001;-58
2022/12/24 00:02:27;;;;;;;5.90;1.50;;;;;;;11.76;95.78;99603.19;5023343;28;20449;-57
2022/12/24 00:04:53;;;;;;;4.10;1.47;;;;;;;11.73;96.04;99604.19;5026523;28;20855;-57
2022/12/24 00:07:26;;;;;;;0.57;0.50;;;;;;;11.61;97.11;99606.53;5024317;28;20513;-57
2022/12/24 00:09:52;;;;;;;3.33;0.50;;;;;;;11.73;97.13;99604.19;5028751;28;20534;-58
2022/12/24 00:12:19;;;;;;;6.27;0.77;;;;;;;11.79;96.42;99603.97;5007044;28;20496;-57
2022/12/24 00:14:45;;;;;;;18.53;1.20;;;;;;;11.79;97.48;99606.63;5030818;28;20418;-57
2022/12/24 00:17:12;;;;;;;1.27;0.97;;;;;;;11.73;97.59;99613.97;5041538;28;20460;-57
2022/12/24 00:19:38;;;;;;;4.23;1.03;;;;;;;11.70;98.06;99625.63;5019195;28;20495;-57
2022/12/24 00:22:04;;;;;;;1.80;1.00;;;;;;;11.62;99.59;99622.44;5032610;28;20429;-58
2022/12/24 00:24:31;;;;;;;1.33;0.97;;;;;;;11.58;100.00;99629.69;5019607;28;20456;-57
2022/12/24 00:26:57;;;;;;;1.27;0.90;;;;;;;11.64;100.00;99628.53;5021563;28;20419;-58
2022/12/24 00:29:24;;;;;;;1.37;1.37;;;;;;;11.80;99.42;99634.13;5026494;28;20447;-57
2022/12/24 00:31:50;;;;;;;7.10;1.50;;;;;;;11.70;99.78;99643.41;5023635;28;20452;-58
2022/12/24 00:34:17;;;;;;;1.57;0.87;;;;;;;11.61;99.99;99626.03;5019165;28;20426;-58
2022/12/24 00:36:43;;;;;;;3.13;1.23;;;;;;;11.54;100.00;99633.44;5023223;28;20448;-58
2022/12/24 00:39:10;;;;;;;8.50;1.00;;;;;;;11.59;100.00;99633.22;5027521;28;20859;-57
2022/12/24 00:41:36;;;;;;;1.50;0.90;;;;;;;11.62;99.94;99626.88;5024633;28;20456;-57
2022/12/24 00:44:05;;;;;;;0.70;0.37;;;;;;;11.61;99.99;99627.81;5019446;28;20451;-58
2022/12/24 00:46:33;;;;;;;0.50;0.50;;;;;;;11.45;100.00;99632.94;5020633;28;20530;-58
2022/12/24 00:49:00;;;;;;;7.60;1.27;;;;;;;11.57;100.00;99633.28;5026095;28;20464;-57
2022/12/24 00:51:27;;;;;;;12.47;0.73;;;;;;;11.55;100.00;99635.16;5024840;28;20967;-57
2022/12/24 00:53:53;;;;;;;10.50;1.50;;;;;;;11.57;100.00;99627.09;5019386;28;20472;-58
2022/12/24 00:56:20;;;;;;;0.40;0.30;;;;;;;11.52;100.00;99632.63;5020412;28;20434;-58
2022/12/24 00:58:47;;;;;;;1.60;0.60;;;;;;;11.52;100.00;99634.44;5025810;28;20478;-57
2022/12/24 01:01:14;;;;;;;1.93;0.87;;;;;;;11.56;100.00;99646.66;5024590;28;20583;-57
2022/12/24 01:03:40;;;;;;;4.10;1.07;;;;;;;11.56;99.08;99638.69;5019267;28;20501;-57
2022/12/24 01:06:25;;;;;;;0.60;0.40;;;;;;;11.56;99.02;99636.88;5019533;28;20958;-57
2022/12/24 01:08:51;;;;;;;0.73;0.73;;;;;;;11.50;100.00;99639.78;5031782;28;20467;-57
2022/12/24 01:11:18;;;;;;;13.73;2.10;;;;;;;11.54;99.56;99643.22;5018870;28;20456;-57
2022/12/24 01:13:45;;;;;;;3.40;1.23;;;;;;;11.50;99.42;99652.22;5026093;28;20923;-57
2022/12/24 01:16:18;;;;;;;7.63;1.80;;;;;;;11.38;100.00;99663.44;5045622;28;20451;-57
2022/12/24 01:18:45;;;;;;;5.50;1.03;;;;;;;11.36;100.00;99663.47;5021623;28;20472;-57
2022/12/24 01:21:11;;;;;;;0.87;0.87;;;;;;;11.34;100.00;99653.81;5028837;28;20469;-57
2022/12/24 01:23:37;;;;;;;22.93;3.60;;;;;;;11.40;100.00;99666.88;5021355;28;20445;-57
2022/12/24 01:26:04;;;;;;;1.63;0.70;;;;;;;11.33;100.00;99676.03;5025433;28;20452;-57
2022/12/24 01:28:32;;;;;;;1.70;0.80;;;;;;;11.40;100.00;99673.06;5022893;28;20474;-57
2022/12/24 01:30:58;;;;;;;2.57;1.17;;;;;;;11.19;100.00;99677.47;5018980;28;20443;-56
2022/12/24 01:33:29;;;;;;;0.70;0.70;;;;;;;11.25;100.00;99674.56;5020929;28;20475;-57
2022/12/24 01:35:55;;;;;;;3.70;0.70;;;;;;;11.18;100.00;99688.19;5025392;28;20459;-57
2022/12/24 01:38:22;;;;;;;1.17;1.13;;;;;;;11.24;100.00;99694.13;5027361;28;20470;-57
2022/12/24 01:43:33;;;;;;;7.73;2.17;;;;;;;11.17;100.00;99707.72;5019962;28;20546;-57
2022/12/24 01:46:15;;;;;;;3.90;2.00;;;;;;;11.32;100.00;99703.56;5028394;28;20471;-57
2022/12/24 01:48:46;;;;;;;21.97;2.97;;;;;;;11.19;100.00;99706.72;5028869;28;21036;-57
2022/12/24 01:51:26;;;;;;;2.90;0.80;;;;;;;11.17;100.00;99699.75;5026229;28;20497;-57
2022/12/24 01:54:01;;;;;;;11.00;1.50;;;;;;;11.30;100.00;99708.09;5022203;28;20444;-57
2022/12/24 01:56:31;;;;;;;7.70;0.70;;;;;;;11.29;100.00;99699.25;5022597;28;20454;-57
2022/12/24 01:59:05;;;;;;;8.43;1.90;;;;;;;11.38;100.00;99706.00;5028186;28;20476;-58
2022/12/24 02:01:32;;;;;;;1.40;0.90;;;;;;;11.34;100.00;99707.91;5028730;28;20556;-57
2022/12/24 02:04:00;;;;;;;2.10;1.23;;;;;;;11.28;100.00;99710.81;5024487;28;20451;-57
2022/12/24 02:06:26;;;;;;;5.43;1.00;;;;;;;11.24;100.00;99704.78;5022138;28;20456;-57
2022/12/24 02:08:54;;;;;;;0.60;0.50;;;;;;;11.27;100.00;99712.63;5035246;28;20494;-57
2022/12/24 02:11:21;;;;;;;2.00;1.03;;;;;;;11.28;100.00;99710.81;5021991;28;20452;-57
2022/12/24 02:13:57;;;;;;;0.50;0.30;;;;;;;11.33;100.00;99714.16;5029434;28;20460;-57
2022/12/24 02:16:42;;;;;;;1.63;0.73;;;;;;;11.19;100.00;99727.16;5048218;28;20443;-57
2022/12/24 02:19:24;;;;;;;9.03;1.20;;;;;;;11.21;100.00;99734.13;5022242;28;20559;-57
2022/12/24 02:22:02;;;;;;;2.40;1.80;;;;;;;11.20;100.00;99728.88;5033819;28;21004;-56
2022/12/24 02:24:31;;;;;;;1.40;0.87;;;;;;;11.34;100.00;99738.97;5021657;28;20458;-57
2022/12/24 02:27:11;;;;;;;8.77;1.00;;;;;;;11.29;100.00;99744.47;5023475;28;20523;-57
2022/12/24 02:30:04;;;;;;;47.27;1.53;;;;;;;11.23;100.00;99742.03;5022330;28;20464;-56
2022/12/24 02:32:42;;;;;;;0.57;0.57;;;;;;;11.14;100.00;99731.78;5004079;28;20422;-57
2022/12/24 02:35:11;;;;;;;0.40;0.30;;;;;;;11.16;100.00;99737.91;5022378;28;20456;-57
2022/12/24 02:37:53;;;;;;;0.57;0.40;;;;;;;11.32;100.00;99740.81;5034807;28;20458;-57
2022/12/24 02:40:26;;;;;;;4.63;1.00;;;;;;;11.18;100.00;99742.25;5021157;28;20532;-57
2022/12/24 02:42:59;;;;;;;4.63;0.97;;;;;;;11.24;100.00;99752.66;5025220;28;20445;-57
2022/12/24 02:45:31;;;;;;;2.10;0.67;;;;;;;11.02;100.00;99753.56;5027972;28;20461;-57
2022/12/24 02:47:59;;;;;;;0.53;0.40;;;;;;;10.94;100.00;99749.38;5026389;28;20437;-57
2022/12/24 02:50:25;;;;;;;0.80;0.50;;;;;;;10.86;100.00;99755.94;5021260;28;20470;-57
2022/12/24 02:52:52;;;;;;;1.47;1.37;;;;;;;10.89;100.00;99747.84;5022683;28;20877;-57
2022/12/24 02:55:51;;;;;;;3.03;0.77;;;;;;;10.98;100.00;99758.13;5026900;28;20543;-57
2022/12/24 02:58:49;;;;;;;0.87;0.73;;;;;;;10.76;100.00;99766.06;5002147;28;20506;-57
2022/12/24 03:01:41;;;;;;;1.63;1.50;;;;;;;10.64;100.00;99764.72;5027862;28;21034;-57
2022/12/24 03:04:39;;;;;;;9.30;0.80;;;;;;;10.52;100.00;99775.78;5025383;28;20829;-57
2022/12/24 03:07:15;;;;;;;12.33;0.73;;;;;;;10.42;100.00;99769.09;5030713;28;20479;-57
2022/12/24 03:10:13;;;;;;;0.93;0.83;;;;;;;10.28;100.00;99772.25;5029538;28;21027;-57
2022/12/24 03:12:53;;;;;;;18.83;3.63;;;;;;;10.23;100.00;99776.84;4986083;28;20959;-57
2022/12/24 03:15:23;;;;;;;3.50;0.80;;;;;;;10.09;100.00;99777.31;5033992;28;20889;-57
2022/12/24 03:17:53;;;;;;;1.80;1.70;;;;;;;10.12;100.00;99771.00;5030763;28;20457;-57
2022/12/24 03:20:32;;;;;;;2.83;2.10;;;;;;;10.12;100.00;99776.31;5024299;28;20498;-57
2022/12/24 03:22:59;;;;;;;0.40;0.30;;;;;;;10.24;100.00;99780.38;5027963;28;20452;-57
2022/12/24 03:25:26;;;;;;;0.60;0.47;;;;;;;10.43;100.00;99780.59;5026292;28;20475;-56
2022/12/24 03:27:56;;;;;;;1.03;1.03;;;;;;;10.49;100.00;99788.34;5020384;28;20461;-57
2022/12/24 03:30:22;;;;;;;2.30;1.33;;;;;;;10.68;100.00;99784.06;5020959;28;20475;-57
2022/12/24 03:32:50;;;;;;;7.40;0.97;;;;;;;10.79;100.00;99794.31;5027132;28;20539;-56
2022/12/24 03:35:16;;;;;;;6.13;2.67;;;;;;;10.62;100.00;99787.84;5026975;28;20455;-57
2022/12/24 03:37:42;;;;;;;1.93;1.13;;;;;;;10.56;100.00;99792.53;5024057;28;20455;-57
2022/12/24 03:40:09;;;;;;;7.20;1.00;;;;;;;10.60;100.00;99802.09;5020227;28;20454;-56
2022/12/24 03:42:36;;;;;;;5.73;1.90;;;;;;;10.62;100.00;99808.22;5020543;28;20459;-56
2022/12/24 03:45:03;;;;;;;1.93;1.63;;;;;;;10.76;100.00;99808.59;5020372;28;20522;-56
2022/12/24 03:47:30;;;;;;;1.33;0.40;;;;;;;10.76;100.00;99810.38;5020391;28;20920;-56
2022/12/24 03:49:56;;;;;;;0.40;0.30;;;;;;;10.72;100.00;99816.75;5019964;28;20465;-57
2022/12/24 03:52:24;;;;;;;2.43;0.93;;;;;;;10.83;100.00;99822.53;5026540;28;21014;-57
2022/12/24 03:54:50;;;;;;;3.90;1.63;;;;;;;10.77;100.00;99820.94;5026576;28;20448;-57
2022/12/24 03:57:17;;;;;;;2.87;0.77;;;;;;;10.92;100.00;99817.72;5021040;28;20447;-57
2022/12/24 03:59:43;;;;;;;0.70;0.67;;;;;;;10.80;100.00;99825.28;5019908;28;20472;-57
2022/12/24 04:02:10;;;;;;;5.93;0.60;;;;;;;10.82;100.00;99823.44;5025669;28;21052;-57
2022/12/24 04:04:36;;;;;;;5.50;0.73;;;;;;;10.66;100.00;99826.66;5026777;28;20455;-57
2022/12/24 04:07:04;;;;;;;0.83;0.83;;;;;;;10.80;100.00;99834.13;5020957;28;20448;-57
2022/12/24 04:09:31;;;;;;;0.63;0.63;;;;;;;10.76;100.00;99831.66;5031946;28;20471;-56
2022/12/24 04:11:58;;;;;;;0.50;0.30;;;;;;;10.67;100.00;99830.19;5021085;28;20459;-57
2022/12/24 04:14:24;;;;;;;6.70;1.60;;;;;;;10.75;100.00;99829.91;5028526;28;20455;-57
2022/12/24 04:16:51;;;;;;;21.73;1.67;;;;;;;10.59;100.00;99841.09;5044309;28;20452;-57
2022/12/24 04:19:17;;;;;;;1.43;0.77;;;;;;;10.95;100.00;99838.88;5019758;28;20480;-57
2022/12/24 04:21:43;;;;;;;0.60;0.50;;;;;;;10.59;100.00;99840.25;5031830;28;20999;-57
2022/12/24 04:24:10;;;;;;;1.53;1.43;;;;;;;10.57;100.00;99831.47;5019596;28;20547;-57
2022/12/24 04:26:36;;;;;;;1.10;0.57;;;;;;;10.63;100.00;99839.19;5024337;28;20456;-57
2022/12/24 04:29:03;;;;;;;3.80;1.07;;;;;;;10.56;100.00;99840.34;5026205;28;20483;-57
2022/12/24 04:31:29;;;;;;;7.13;1.50;;;;;;;10.62;100.00;99833.00;5021466;28;20422;-54
2022/12/24 04:33:55;;;;;;;2.10;0.63;;;;;;;10.62;100.00;99835.66;5019128;28;20423;-55
2022/12/24 04:36:22;;;;;;;4.63;1.03;;;;;;;10.60;100.00;99841.97;5024300;28;20452;-54
2022/12/24 04:38:49;;;;;;;0.33;0.30;;;;;;;10.61;100.00;99839.25;5029511;28;20483;-55
2022/12/24 04:41:19;;;;;;;1.63;1.53;;;;;;;10.78;100.00;99846.59;5021623;28;20528;-55
2022/12/24 04:43:51;;;;;;;1.17;0.80;;;;;;;10.75;100.00;99845.88;5019145;28;20418;-55
2022/12/24 04:46:23;;;;;;;1.40;1.30;;;;;;;10.61;100.00;99849.88;5022475;28;20487;-55
2022/12/24 04:48:51;;;;;;;2.40;0.70;;;;;;;10.70;100.00;99855.81;5025936;28;20563;-55
2022/12/24 04:51:18;;;;;;;18.63;2.47;;;;;;;10.64;100.00;99843.59;5024050;28;20455;-55
2022/12/24 04:53:46;;;;;;;6.70;1.30;;;;;;;10.78;100.00;99853.72;5019122;28;20455;-55
2022/12/24 04:56:21;;;;;;;1.60;1.50;;;;;;;10.91;100.00;99855.88;5020884;28;20827;-55
2022/12/24 04:58:48;;;;;;;0.70;0.63;;;;;;;10.74;100.00;99855.63;5025771;28;20839;-55
2022/12/24 05:01:27;;;;;;;7.43;1.33;;;;;;;10.93;100.00;99861.13;5025177;28;20967;-55
2022/12/24 05:03:54;;;;;;;0.70;0.60;;;;;;;10.84;100.00;99859.69;5020886;28;20822;-55
2022/12/24 05:06:27;;;;;;;6.90;1.03;;;;;;;10.95;100.00;99853.97;5018713;28;20973;-55
2022/12/24 05:08:55;;;;;;;21.97;1.60;;;;;;;10.95;100.00;99865.47;5032054;28;20450;-55
2022/12/24 05:11:22;;;;;;;4.57;0.80;;;;;;;10.93;100.00;99861.13;5018872;28;20836;-55
2022/12/24 05:13:49;;;;;;;5.70;1.30;;;;;;;10.89;100.00;99849.75;5025251;28;20459;-55
2022/12/24 05:16:18;;;;;;;1.83;0.50;;;;;;;10.78;100.00;99862.56;5045436;28;20448;-55
2022/12/24 05:18:44;;;;;;;0.97;0.50;;;;;;;10.91;100.00;99861.19;5025031;28;20468;-55
2022/12/24 05:21:16;;;;;;;10.40;1.10;;;;;;;10.79;100.00;99860.78;5035484;28;20491;-53
2022/12/24 05:26:36;;;;;;;8.03;1.53;;;;;;;10.93;100.00;99854.03;5026717;28;20485;-54
2022/12/24 05:29:03;;;;;;;2.53;2.30;;;;;;;11.04;100.00;99855.41;5025214;28;20467;-55
2022/12/24 05:31:32;;;;;;;6.43;0.57;;;;;;;11.00;100.00;99862.66;5029843;28;20942;-55
2022/12/24 05:34:00;;;;;;;1.40;0.83;;;;;;;11.12;100.00;99871.97;5032239;28;20452;-56
2022/12/24 05:36:26;;;;;;;2.53;1.20;;;;;;;10.90;100.00;99877.22;5027894;28;20455;-55
2022/12/24 05:38:53;;;;;;;22.17;0.90;;;;;;;10.88;100.00;99861.31;5035322;28;20916;-56
2022/12/24 05:41:22;;;;;;;2.10;1.30;;;;;;;11.11;100.00;99871.09;5028277;28;20497;-56
2022/12/24 05:43:48;;;;;;;14.03;0.80;;;;;;;10.78;100.00;99872.31;5025420;28;20463;-56
2022/12/24 05:46:20;;;;;;;7.30;1.67;;;;;;;10.94;100.00;99884.13;5028478;28;20560;-56
2022/12/24 05:48:48;;;;;;;7.17;1.23;;;;;;;11.06;100.00;99888.16;5032004;28;20981;-56
2022/12/24 05:51:18;;;;;;;4.17;1.30;;;;;;;10.90;100.00;99887.84;5030061;28;20538;-56
2022/12/24 05:53:46;;;;;;;0.60;0.60;;;;;;;11.02;100.00;99882.06;5025012;28;20477;-56
2022/12/24 05:56:15;;;;;;;4.47;1.07;;;;;;;11.07;100.00;99884.56;5026806;28;20451;-55
2022/12/24 05:58:42;;;;;;;8.10;2.33;;;;;;;11.09;100.00;99877.38;5031627;28;20840;-56
2022/12/24 06:01:10;;;;;;;1.93;0.50;;;;;;;10.97;100.00;99886.72;5030895;28;20494;-56
2022/12/24 06:03:37;;;;;;;1.90;0.80;;;;;;;11.00;100.00;99883.06;5024827;28;20979;-56
2022/12/24 06:06:08;;;;;;;3.70;1.27;;;;;;;10.88;100.00;99890.56;5025719;28;20452;-56
2022/12/24 06:08:36;;;;;;;0.87;0.67;;;;;;;10.81;100.00;99899.66;5038166;28;20493;-56
2022/12/24 06:11:05;;;;;;;0.50;0.43;;;;;;;10.76;100.00;99911.41;5024726;28;20448;-55
2022/12/24 06:13:32;;;;;;;1.43;1.30;;;;;;;10.77;100.00;99905.16;5031705;28;20431;-55
2022/12/24 06:16:01;;;;;;;1.63;0.47;;;;;;;10.71;100.00;99910.69;5051245;28;20819;-55
2022/12/24 06:18:29;;;;;;;4.93;1.27;;;;;;;10.63;100.00;99916.28;5012274;28;20478;-56
2022/12/24 06:20:57;;;;;;;30.37;1.40;;;;;;;10.51;100.00;99922.88;5032733;28;20866;-56
2022/12/24 06:23:24;;;;;;;5.50;1.63;;;;;;;10.48;100.00;99927.44;5029009;28;20965;-56
2022/12/24 06:25:51;;;;;;;1.53;0.50;;;;;;;10.32;100.00;99927.97;5031294;28;20460;-57
2022/12/24 06:28:18;;;;;;;4.03;1.10;;;;;;;10.30;100.00;99923.63;5027410;28;20418;-57
2022/12/24 06:30:48;;;;;;;10.63;2.43;;;;;;;10.41;100.00;99925.88;5021255;28;20463;-57
2022/12/24 06:33:17;;;;;;;3.23;2.70;;;;;;;10.35;100.00;99917.22;5024686;28;20829;-57
2022/12/24 06:35:45;;;;;;;2.00;0.80;;;;;;;10.27;100.00;99921.91;5028461;28;20431;-57
2022/12/24 06:38:13;;;;;;;2.83;1.07;;;;;;;10.30;100.00;99913.84;5028977;28;20447;-57
2022/12/24 06:40:41;;;;;;;3.20;2.00;;;;;;;10.26;100.00;99908.69;5021419;28;20462;-57
2022/12/24 06:43:08;;;;;;;3.87;1.07;;;;;;;10.32;100.00;99914.66;5023984;28;20445;-57
2022/12/24 06:45:34;;;;;;;8.63;0.60;;;;;;;10.31;100.00;99918.25;5028302;28;20453;-57
2022/12/24 06:48:01;;;;;;;9.70;1.90;;;;;;;10.24;100.00;99924.69;5026770;28;20426;-56
2022/12/24 06:50:27;;;;;;;1.47;1.37;;;;;;;10.22;100.00;99917.69;5004077;28;20475;-56
2022/12/24 06:52:54;;;;;;;8.60;2.67;;;;;;;10.15;100.00;99917.00;5005470;28;20452;-57
2022/12/24 06:55:20;;;;;;;18.07;2.17;;;;;;;10.12;100.00;99925.03;5028091;28;20456;-58
2022/12/24 06:57:46;;;;;;;2.20;1.33;;;;;;;10.04;100.00;99927.09;5026881;28;20471;-57
2022/12/24 07:00:14;;;;;;;14.60;2.00;;;;;;;10.05;100.00;99936.78;5021118;28;20993;-57
2022/12/24 07:02:41;;;;;;;3.90;1.50;;;;;;;10.06;100.00;99927.91;5022403;28;20492;-58
2022/12/24 07:05:10;;;;;;;5.40;1.23;;;;;;;10.01;100.00;99938.69;5027919;28;20457;-58
2022/12/24 07:07:41;;;;;;;2.93;1.10;;;;;;;9.98;100.00;99933.44;5027441;28;20451;-58
2022/12/24 07:10:11;;;;;;;5.83;1.13;;;;;;;9.95;100.00;99930.91;5021260;28;20973;-57
2022/12/24 07:12:38;;;;;;;1.70;1.43;;;;;;;9.98;100.00;99937.91;5021255;28;20502;-57
2022/12/24 07:15:05;;;;;;;24.53;3.60;;;;;;;9.92;100.00;99944.28;5034201;28;20458;-57
2022/12/24 07:17:31;;;;;;;3.30;1.20;;;;;;;9.93;100.00;99945.16;5033295;28;20455;-58
2022/12/24 07:19:58;;;;;;;3.50;1.03;;;;;;;10.02;100.00;99955.50;5021975;28;20475;-58
2022/12/24 07:22:24;;;;;;;3.13;0.97;;;;;;;10.06;100.00;99954.47;5032182;28;20853;-58
2022/12/24 07:24:51;;;;;;;5.63;1.60;;;;;;;10.20;100.00;99959.34;5021802;28;21051;-57
2022/12/24 07:27:17;;;;;;;5.23;2.10;;;;;;;10.11;100.00;99957.81;5020686;28;20459;-58
2022/12/24 07:29:43;;;;;;;15.90;1.17;;;;;;;10.07;100.00;99964.16;5026557;28;20475;-57
2022/12/24 07:32:10;;;;;;;2.07;1.20;;;;;;;9.97;100.00;99962.72;5027171;28;20961;-57
2022/12/24 07:34:38;;;;;;;4.63;1.57;;;;;;;9.85;100.00;99963.94;5021342;28;20479;-57
2022/12/24 07:37:05;;;;;;;8.50;2.17;;;;;;;9.74;100.00;99966.09;5023864;28;20542;-57
2022/12/24 07:39:32;;;;;;;2.33;1.97;;;;;;;9.72;100.00;99968.75;5025640;28;20480;-58
2022/12/24 07:41:58;;;;;;;2.60;1.80;;;;;;;9.68;100.00;99975.09;5026920;28;20467;-57
2022/12/24 07:44:25;;;;;;;3.93;1.50;;;;;;;9.69;100.00;99976.81;5022166;28;20458;-57
2022/12/24 07:46:51;;;;;;;7.53;2.27;;;;;;;9.72;100.00;99978.50;5020099;28;20455;-57
2022/12/24 07:49:18;;;;;;;8.70;2.10;;;;;;;9.77;100.00;99988.09;5025348;28;20822;-58
2022/12/24 07:51:44;;;;;;;4.90;2.20;;;;;;;9.73;100.00;99989.13;5026691;28;20518;-57
2022/12/24 07:54:11;;;;;;;14.20;2.03;;;;;;;9.80;100.00;99995.97;5021996;28;20535;-57
2022/12/24 07:56:37;;;;;;;1.30;1.20;;;;;;;9.71;100.00;99998.00;5020056;28;20427;-57
2022/12/24 07:59:03;;;;;;;9.23;2.10;;;;;;;9.66;100.00;100006.13;5025188;28;20485;-57
2022/12/24 08:01:30;;;;;;;2.60;1.70;;;;;;;9.71;100.00;100003.31;5026690;28;20493;-57
2022/12/24 08:03:56;;;;;;;1.43;1.30;;;;;;;9.74;100.00;100005.91;5021797;28;20450;-57
2022/12/24 08:06:23;;;;;;;1.50;1.13;;;;;;;9.76;100.00;99999.63;5019768;28;20449;-58
2022/12/24 08:08:49;;;;;;;4.27;1.30;;;;;;;9.80;100.00;100009.22;5033135;28;20530;-57
2022/12/24 08:11:16;;;;;;;4.73;1.80;;;;;;;9.90;100.00;100015.13;5030826;28;20448;-57
2022/12/24 08:13:42;;;;;;;1.77;1.63;;;;;;;10.02;100.00;100016.56;5022745;28;20454;-57
2022/12/24 08:16:09;;;;;;;1.17;1.07;;;;;;;10.13;100.00;100026.81;5032889;28;20929;-58
2022/12/24 08:18:35;;;;;;;3.13;1.50;;;;;;;10.11;100.00;100018.91;5023518;28;20473;-58
2022/12/24 08:21:02;;;;;;;1.17;0.77;;;;;;;10.19;100.00;100024.88;5028287;28;20457;-58
2022/12/24 08:23:28;;;;;;;4.53;1.43;;;;;;;10.26;100.00;100025.56;5023368;28;20885;-58
2022/12/24 08:25:55;;;;;;;3.40;1.30;;;;;;;10.38;100.00;100025.16;5026468;28;20511;-58
2022/12/24 08:28:21;;;;;;;14.97;1.23;;;;;;;10.31;100.00;100027.16;5022654;28;20476;-58
2022/12/24 08:30:49;;;;;;;2.60;1.60;;;;;;;10.35;100.00;100020.84;5029634;28;20438;-58
2022/12/24 08:33:16;;;;;;;1.77;1.10;;;;;;;10.38;100.00;100034.00;5022947;28;20933;-58
2022/12/24 08:35:54;;;;;;;5.07;1.67;;;;;;;10.42;100.00;100032.16;5019654;28;20448;-58
2022/12/24 08:38:22;;;;;;;10.60;2.30;;;;;;;10.49;100.00;100035.47;5032579;28;20524;-58
2022/12/24 08:40:49;;;;;;;5.23;3.13;;;;;;;10.51;100.00;100028.31;5019548;28;20455;-57
2022/12/24 08:43:16;;;;;;;2.67;1.77;;;;;;;10.58;100.00;100045.81;5020140;28;20488;-58
2022/12/24 08:45:44;;;;;;;9.43;1.43;;;;;;;10.77;100.00;100035.44;5025944;28;20452;-58
2022/12/24 08:48:11;;;;;;;3.00;2.57;;;;;;;10.66;100.00;100038.44;5026099;28;20578;-58
2022/12/24 08:50:39;;;;;;;1.87;1.77;;;;;;;10.73;100.00;100053.28;5019618;28;20452;-58
2022/12/24 08:53:05;;;;;;;3.90;1.40;;;;;;;10.78;100.00;100055.78;5018669;28;20493;-58
2022/12/24 08:55:32;;;;;;;2.17;1.97;;;;;;;10.88;100.00;100063.41;5025479;28;20455;-57
2022/12/24 08:57:59;;;;;;;2.73;1.60;;;;;;;10.96;100.00;100068.44;5025680;28;20460;-57
2022/12/24 09:00:26;;;;;;;11.53;1.13;;;;;;;11.03;100.00;100067.31;5019858;28;20502;-58
2022/12/24 09:02:52;;;;;;;6.33;1.37;;;;;;;11.10;100.00;100060.88;5019147;28;20496;-58
2022/12/24 09:05:19;;;;;;;4.97;1.70;;;;;;;11.09;100.00;100063.56;5007285;28;20423;-58
2022/12/24 09:07:45;;;;;;;17.77;2.77;;;;;;;11.27;100.00;100076.25;5026835;28;20478;-58
2022/12/24 09:10:12;;;;;;;3.93;1.03;;;;;;;11.33;100.00;100080.50;5024575;28;20442;-58
2022/12/24 09:12:38;;;;;;;7.10;1.33;;;;;;;11.32;100.00;100082.28;5008239;28;20448;-58
2022/12/24 09:15:06;;;;;;;10.60;2.20;;;;;;;11.44;100.00;100078.31;5033036;28;20443;-58
2022/12/24 09:17:34;;;;;;;1.23;0.90;;;;;;;11.57;100.00;100082.28;5036546;28;20547;-58
2022/12/24 09:20:02;;;;;;;1.33;0.63;;;;;;;11.69;100.00;100078.31;5020401;28;20475;-58
2022/12/24 09:22:29;;;;;;;2.53;1.17;;;;;;;11.97;100.00;100080.84;5029974;28;20491;-58
2022/12/24 09:24:55;;;;;;;18.77;2.30;;;;;;;12.14;100.00;100089.94;5020774;28;20803;-58
2022/12/24 09:27:22;;;;;;;3.73;0.93;;;;;;;12.18;100.00;100095.16;5017266;28;20432;-58
2022/12/24 09:29:48;;;;;;;9.53;1.17;;;;;;;12.25;100.00;100094.00;5021026;28;20542;-58
2022/12/24 09:32:15;;;;;;;28.50;2.30;;;;;;;12.25;100.00;100091.34;5018817;28;20815;-58
2022/12/24 09:34:41;;;;;;;2.30;0.60;;;;;;;12.38;100.00;100104.13;5023946;28;20878;-58
2022/12/24 09:37:08;;;;;;;1.63;0.97;;;;;;;12.37;100.00;100101.53;5027803;28;20447;-58
2022/12/24 09:39:34;;;;;;;5.90;1.97;;;;;;;12.42;100.00;100111.06;5023977;28;20491;-58
2022/12/24 09:42:07;;;;;;;3.80;1.20;;;;;;;12.44;100.00;100121.66;5025574;28;20466;-58
2022/12/24 09:45:00;;;;;;;5.30;0.90;;;;;;;12.50;100.00;100113.44;5022092;28;20452;-53
2022/12/24 09:47:41;;;;;;;6.50;1.47;;;;;;;12.50;100.00;100113.44;5025342;28;20938;-54
2022/12/24 09:50:26;;;;;;;3.00;1.00;;;;;;;12.51;100.00;100116.97;5025236;28;20562;-53
2022/12/24 09:52:54;;;;;;;0.90;0.40;;;;;;;12.39;100.00;100123.66;5023619;28;20447;-54
2022/12/24 09:55:26;;;;;;;1.33;1.23;;;;;;;12.39;100.00;100118.31;5018868;28;20465;-54
2022/12/24 09:57:55;;;;;;;8.40;1.37;;;;;;;12.36;100.00;100121.97;5019574;28;20448;-53
2022/12/24 10:00:26;;;;;;;0.70;0.30;;;;;;;12.55;100.00;100121.25;5025076;28;20473;-53
2022/12/24 10:02:53;;;;;;;1.90;1.47;;;;;;;12.53;100.00;100125.78;5025168;28;20483;-57
2022/12/24 10:05:38;;;;;;;0.60;0.50;;;;;;;12.56;100.00;100125.66;5021569;28;20459;-53
2022/12/24 10:08:46;;;;;;;5.47;1.67;;;;;;;12.72;100.00;100121.44;5032633;28;20526;-53
2022/12/24 10:11:26;;;;;;;14.63;1.93;;;;;;;12.91;100.00;100124.25;4997920;28;20454;-54
2022/12/24 10:14:24;;;;;;;7.03;1.83;;;;;;;13.02;100.00;100117.56;5028846;28;20945;-54
2022/12/24 10:17:02;;;;;;;4.23;1.33;;;;;;;13.06;100.00;100136.97;5023878;28;20426;-53
2022/12/24 10:20:10;;;;;;;11.10;1.20;;;;;;;13.08;100.00;100139.56;5021910;28;20467;-55
2022/12/24 10:23:02;;;;;;;0.70;0.70;;;;;;;13.16;100.00;100134.78;4954526;29;20938;-54
2022/12/24 10:25:56;;;;;;;12.93;1.90;;;;;;;13.30;100.00;100125.31;5026304;28;20460;-54
2022/12/24 10:29:01;;;;;;;4.30;1.03;;;;;;;13.24;100.00;100130.00;5025369;28;20451;-54
2022/12/24 10:31:38;;;;;;;7.40;1.53;;;;;;;13.17;100.00;100134.72;5020515;28;20466;-55
2022/12/24 10:34:15;;;;;;;19.33;1.43;;;;;;;13.16;100.00;100141.00;5021708;28;20534;-54
2022/12/24 10:36:41;;;;;;;7.90;0.90;;;;;;;12.99;100.00;100140.78;5025127;28;20434;-53
2022/12/24 10:39:19;;;;;;;10.00;1.17;;;;;;;13.01;100.00;100147.81;5030034;28;20581;-54
2022/12/24 10:41:48;;;;;;;2.67;1.17;;;;;;;13.04;100.00;100150.38;5010927;28;20447;-53
2022/12/24 10:44:17;;;;;;;6.30;2.07;;;;;;;13.08;100.00;100148.44;5022174;28;20934;-54
2022/12/24 10:46:45;;;;;;;5.50;1.80;;;;;;;13.04;100.00;100145.03;5021515;28;20451;-54
2022/12/24 10:49:15;;;;;;;15.30;2.17;;;;;;;12.96;100.00;100141.78;5026988;28;20513;-55
2022/12/24 10:51:47;;;;;;;12.27;1.80;;;;;;;12.87;100.00;100149.28;5028343;28;20455;-55
2022/12/24 10:54:19;;;;;;;14.27;1.33;;;;;;;12.97;100.00;100137.31;5024703;28;20452;-54
2022/12/24 10:56:57;;;;;;;12.57;1.37;;;;;;;12.98;100.00;100142.59;5021515;28;20461;-54
2022/12/24 10:59:35;;;;;;;4.20;0.80;;;;;;;13.12;100.00;100146.50;5022579;28;20568;-53
2022/12/24 11:02:01;;;;;;;11.70;1.50;;;;;;;13.29;100.00;100149.34;5027572;28;20435;-54
2022/12/24 11:04:30;;;;;;;8.17;1.00;;;;;;;13.36;100.00;100150.84;5028056;28;20447;-54
2022/12/24 11:07:00;;;;;;;9.23;1.70;;;;;;;13.39;100.00;100157.88;5022194;28;20452;-54
2022/12/24 11:09:30;;;;;;;9.53;0.67;;;;;;;13.48;100.00;100162.81;5033172;28;20438;-56
2022/12/24 11:11:59;;;;;;;15.47;1.87;;;;;;;13.44;100.00;100158.56;5023327;28;20543;-54
2022/12/24 11:14:37;;;;;;;2.03;1.23;;;;;;;13.33;100.00;100159.88;5030004;28;20903;-54
2022/12/24 11:17:04;;;;;;;13.80;1.27;;;;;;;13.26;100.00;100147.69;5043763;28;20426;-54
2022/12/24 11:19:40;;;;;;;4.43;1.37;;;;;;;13.34;100.00;100158.06;5021207;28;20467;-54
2022/12/24 11:22:18;;;;;;;2.20;1.53;;;;;;;13.16;100.00;100158.81;5033923;28;20448;-54
2022/12/24 11:24:44;;;;;;;10.43;0.97;;;;;;;13.36;100.00;100147.31;5021089;28;20447;-54
2022/12/24 11:27:39;;;;;;;4.37;2.13;;;;;;;13.30;100.00;100154.66;5021066;28;20457;-53
2022/12/24 11:30:22;;;;;;;27.03;2.67;;;;;;;13.32;100.00;100147.47;5023854;28;20468;-52
2022/12/24 11:33:10;;;;;;;4.63;1.07;;;;;;;13.08;100.00;100156.44;5027305;28;20445;-52
2022/12/24 11:35:44;;;;;;;7.83;2.37;;;;;;;13.16;100.00;100157.00;5027260;28;20950;-52
2022/12/24 11:38:18;;;;;;;3.60;1.50;;;;;;;13.23;100.00;100158.50;5027822;28;20950;-51
2022/12/24 11:40:47;;;;;;;19.70;1.93;;;;;;;13.27;100.00;100140.56;5020377;28;20507;-54